الصفحة الرئيسية
METAR-TAF:

METAR-TAF

مطار :

مطار فا الدولي

تاهيتي, بولينسيا الفرنسية

دائرة عرض: 17-33S, خط طول: 149-37W, ارتفاع: 2 متر

مراقبة الطقس الحالي

تاريخ ووقت الإصدار 30 دقيقة قبل الساعة 09:30UTC
ريح 3 عقدة من الشرق
درجة الحرارة 24°درجة مئوية
الرطوبة 78%
ضغط 1015 hPa
الرؤية 10 كم أو أكثر
غيوم قليلة على ارتفاع 6600 قدم

METAR: NTAA 200930Z AUTO 09003KT 9999 FEW066 24/20 Q1015 NOSIG

زمن: 00:00 (10:00 UTC)

توقعات

تاريخ ووقت الإصدار 5ساعات و 0 دقيقة قبل الساعة 05:00UTC
التوقعات صالحة من20 الساعة 06 UTC إلى 21 الساعة 12 UTC
ريح 5 عقدةمن اتجاهات متغيرة
الرؤية 10 كم أو أكثر
غيوم قليلة على ارتفاع 2300 قدم
غيوم متفرقة على ارتفاع 5500 قدم
نظرية الاحتمالات 30% :
مؤقت
من 20 الساعة 20 UTC إلى 21 الساعة 01 UTC
ريح 10 عقدة من الغرب/الشمال الغربي
نظرية الاحتمالات 30% :
مؤقت
من 21 الساعة 02 UTC إلى 21 الساعة 05 UTC
ريح 10 عقدة من الشمال الشرقي

TAF: NTAA 200500Z 2006/2112 VRB05KT 9999 FEW023 SCT055 PROB30 TEMPO 2020/2101 30010KT PROB30 TEMPO 2102/2105 05010KT

أرصاد الطقس والتوقعات من أكثر من 4000 مطار (تقارير الطقس للمطار METAR والتنبؤ بالطقس بالمطارTAF).

المحطات المتاحة هي النقط الصفراء والحمراء على الخريطة.

حرك المؤشر فوق النقطة لمعرفة اسم المحطة.

ثم انقر لمعرفة أرصاد وتوقعات الطقس.

لتغيير الخارطة: اضغط على الأزرار الخضراء مع رمز الصليب الأسود للتكبير. على الزر الأخضر مع شرطة للتصغير، أو على الأسهم الخضراء للخرائط المجاورة.


METAR-TAF: